sensor_id;sensor_type;location;lat;lon;timestamp;P1;durP1;ratioP1;P2;durP2;ratioP2
8317;SDS011;4196;48.926;8.964;2022-09-29T00:02:06;4.77;;;3.67;;
8317;SDS011;4196;48.926;8.964;2022-09-29T00:04:55;4.00;;;2.97;;
8317;SDS011;4196;48.926;8.964;2022-09-29T00:07:42;5.00;;;3.77;;
8317;SDS011;4196;48.926;8.964;2022-09-29T00:10:28;7.10;;;3.37;;
8317;SDS011;4196;48.926;8.964;2022-09-29T00:13:15;4.40;;;3.00;;
8317;SDS011;4196;48.926;8.964;2022-09-29T00:16:02;7.13;;;3.40;;
8317;SDS011;4196;48.926;8.964;2022-09-29T00:18:52;4.70;;;3.07;;
8317;SDS011;4196;48.926;8.964;2022-09-29T00:21:39;4.23;;;2.73;;
8317;SDS011;4196;48.926;8.964;2022-09-29T00:24:25;6.37;;;4.07;;
8317;SDS011;4196;48.926;8.964;2022-09-29T00:27:15;5.37;;;3.77;;
8317;SDS011;4196;48.926;8.964;2022-09-29T00:30:03;4.73;;;2.77;;
8317;SDS011;4196;48.926;8.964;2022-09-29T00:32:50;4.73;;;2.80;;
8317;SDS011;4196;48.926;8.964;2022-09-29T00:35:36;5.30;;;3.03;;
8317;SDS011;4196;48.926;8.964;2022-09-29T00:38:22;7.60;;;3.13;;
8317;SDS011;4196;48.926;8.964;2022-09-29T00:41:19;6.37;;;3.23;;
8317;SDS011;4196;48.926;8.964;2022-09-29T00:50:08;6.17;;;2.90;;
8317;SDS011;4196;48.926;8.964;2022-09-29T00:53:08;4.93;;;3.53;;
8317;SDS011;4196;48.926;8.964;2022-09-29T00:56:02;7.80;;;3.50;;
8317;SDS011;4196;48.926;8.964;2022-09-29T00:58:54;5.73;;;3.40;;
8317;SDS011;4196;48.926;8.964;2022-09-29T01:01:44;4.37;;;3.20;;
8317;SDS011;4196;48.926;8.964;2022-09-29T01:04:32;4.73;;;3.07;;
8317;SDS011;4196;48.926;8.964;2022-09-29T01:07:19;4.57;;;3.83;;
8317;SDS011;4196;48.926;8.964;2022-09-29T01:10:09;6.60;;;4.07;;
8317;SDS011;4196;48.926;8.964;2022-09-29T01:12:57;6.17;;;2.80;;
8317;SDS011;4196;48.926;8.964;2022-09-29T01:15:44;4.70;;;3.17;;
8317;SDS011;4196;48.926;8.964;2022-09-29T01:18:30;4.63;;;3.63;;
8317;SDS011;4196;48.926;8.964;2022-09-29T01:21:24;5.80;;;3.67;;
8317;SDS011;4196;48.926;8.964;2022-09-29T01:24:47;5.83;;;3.60;;
8317;SDS011;4196;48.926;8.964;2022-09-29T01:36:45;4.07;;;3.20;;
8317;SDS011;4196;48.926;8.964;2022-09-29T01:39:53;5.33;;;3.40;;
8317;SDS011;4196;48.926;8.964;2022-09-29T01:43:03;6.10;;;3.40;;
8317;SDS011;4196;48.926;8.964;2022-09-29T01:45:58;4.13;;;3.40;;
8317;SDS011;4196;48.926;8.964;2022-09-29T01:48:50;5.87;;;3.60;;
8317;SDS011;4196;48.926;8.964;2022-09-29T01:51:42;4.70;;;3.43;;
8317;SDS011;4196;48.926;8.964;2022-09-29T01:54:51;5.97;;;3.73;;
8317;SDS011;4196;48.926;8.964;2022-09-29T01:57:46;5.80;;;2.90;;
8317;SDS011;4196;48.926;8.964;2022-09-29T02:00:45;9.00;;;3.77;;
8317;SDS011;4196;48.926;8.964;2022-09-29T02:03:39;5.23;;;3.10;;
8317;SDS011;4196;48.926;8.964;2022-09-29T02:06:31;5.53;;;2.87;;
8317;SDS011;4196;48.926;8.964;2022-09-29T02:09:23;5.47;;;3.30;;
8317;SDS011;4196;48.926;8.964;2022-09-29T02:12:15;4.87;;;3.20;;
8317;SDS011;4196;48.926;8.964;2022-09-29T02:15:06;3.03;;;2.50;;
8317;SDS011;4196;48.926;8.964;2022-09-29T02:17:58;5.37;;;3.33;;
8317;SDS011;4196;48.926;8.964;2022-09-29T02:20:52;4.83;;;3.53;;
8317;SDS011;4196;48.926;8.964;2022-09-29T02:23:38;5.43;;;3.20;;
8317;SDS011;4196;48.926;8.964;2022-09-29T02:26:27;6.53;;;4.50;;
8317;SDS011;4196;48.926;8.964;2022-09-29T02:29:17;5.70;;;3.20;;
8317;SDS011;4196;48.926;8.964;2022-09-29T02:32:04;5.37;;;3.33;;
8317;SDS011;4196;48.926;8.964;2022-09-29T02:34:55;5.47;;;3.50;;
8317;SDS011;4196;48.926;8.964;2022-09-29T02:37:46;5.27;;;3.83;;
8317;SDS011;4196;48.926;8.964;2022-09-29T02:46:34;6.13;;;4.13;;
8317;SDS011;4196;48.926;8.964;2022-09-29T02:55:40;6.20;;;3.20;;
8317;SDS011;4196;48.926;8.964;2022-09-29T02:58:50;3.83;;;3.27;;
8317;SDS011;4196;48.926;8.964;2022-09-29T03:01:50;7.10;;;2.93;;
8317;SDS011;4196;48.926;8.964;2022-09-29T03:04:38;4.77;;;2.97;;
8317;SDS011;4196;48.926;8.964;2022-09-29T03:07:24;4.43;;;2.70;;
8317;SDS011;4196;48.926;8.964;2022-09-29T03:10:11;21.27;;;3.63;;
8317;SDS011;4196;48.926;8.964;2022-09-29T03:12:59;7.77;;;2.97;;
8317;SDS011;4196;48.926;8.964;2022-09-29T03:15:45;5.00;;;3.00;;
8317;SDS011;4196;48.926;8.964;2022-09-29T03:18:32;4.50;;;3.03;;
8317;SDS011;4196;48.926;8.964;2022-09-29T03:21:18;4.77;;;3.07;;
8317;SDS011;4196;48.926;8.964;2022-09-29T03:24:04;3.87;;;2.50;;
8317;SDS011;4196;48.926;8.964;2022-09-29T03:26:51;4.23;;;2.70;;
8317;SDS011;4196;48.926;8.964;2022-09-29T03:29:37;4.70;;;2.80;;
8317;SDS011;4196;48.926;8.964;2022-09-29T03:32:24;5.10;;;2.80;;
8317;SDS011;4196;48.926;8.964;2022-09-29T03:35:10;4.57;;;3.10;;
8317;SDS011;4196;48.926;8.964;2022-09-29T03:37:58;4.07;;;3.13;;
8317;SDS011;4196;48.926;8.964;2022-09-29T03:40:45;6.27;;;3.83;;
8317;SDS011;4196;48.926;8.964;2022-09-29T03:43:32;5.93;;;3.50;;
8317;SDS011;4196;48.926;8.964;2022-09-29T03:46:18;3.93;;;3.07;;
8317;SDS011;4196;48.926;8.964;2022-09-29T03:49:04;4.47;;;3.30;;
8317;SDS011;4196;48.926;8.964;2022-09-29T03:51:51;5.57;;;3.83;;
8317;SDS011;4196;48.926;8.964;2022-09-29T03:54:37;4.73;;;3.47;;
8317;SDS011;4196;48.926;8.964;2022-09-29T03:57:23;5.33;;;3.03;;
8317;SDS011;4196;48.926;8.964;2022-09-29T04:00:10;5.20;;;3.20;;
8317;SDS011;4196;48.926;8.964;2022-09-29T04:02:57;5.37;;;3.10;;
8317;SDS011;4196;48.926;8.964;2022-09-29T04:05:44;4.17;;;3.20;;
8317;SDS011;4196;48.926;8.964;2022-09-29T04:08:34;5.47;;;3.40;;
8317;SDS011;4196;48.926;8.964;2022-09-29T04:11:22;7.40;;;4.17;;
8317;SDS011;4196;48.926;8.964;2022-09-29T04:14:08;6.57;;;3.57;;
8317;SDS011;4196;48.926;8.964;2022-09-29T04:16:54;4.90;;;3.10;;
8317;SDS011;4196;48.926;8.964;2022-09-29T04:19:41;9.47;;;3.00;;
8317;SDS011;4196;48.926;8.964;2022-09-29T04:22:28;5.27;;;3.10;;
8317;SDS011;4196;48.926;8.964;2022-09-29T04:25:14;5.67;;;3.10;;
8317;SDS011;4196;48.926;8.964;2022-09-29T04:28:02;5.40;;;3.43;;
8317;SDS011;4196;48.926;8.964;2022-09-29T04:30:48;5.63;;;3.30;;
8317;SDS011;4196;48.926;8.964;2022-09-29T04:33:34;8.17;;;3.20;;
8317;SDS011;4196;48.926;8.964;2022-09-29T04:36:21;8.33;;;4.13;;
8317;SDS011;4196;48.926;8.964;2022-09-29T04:39:07;6.03;;;3.50;;
8317;SDS011;4196;48.926;8.964;2022-09-29T04:41:54;7.37;;;2.90;;
8317;SDS011;4196;48.926;8.964;2022-09-29T04:44:40;7.13;;;3.93;;
8317;SDS011;4196;48.926;8.964;2022-09-29T04:47:27;8.33;;;3.57;;
8317;SDS011;4196;48.926;8.964;2022-09-29T04:50:13;8.47;;;3.40;;
8317;SDS011;4196;48.926;8.964;2022-09-29T04:52:59;6.97;;;3.40;;
8317;SDS011;4196;48.926;8.964;2022-09-29T04:55:46;6.10;;;3.53;;
8317;SDS011;4196;48.926;8.964;2022-09-29T04:58:33;5.57;;;3.60;;
8317;SDS011;4196;48.926;8.964;2022-09-29T05:01:19;6.93;;;3.70;;
8317;SDS011;4196;48.926;8.964;2022-09-29T05:04:07;5.93;;;4.07;;
8317;SDS011;4196;48.926;8.964;2022-09-29T05:06:54;6.53;;;4.33;;
8317;SDS011;4196;48.926;8.964;2022-09-29T05:09:40;6.83;;;3.70;;
8317;SDS011;4196;48.926;8.964;2022-09-29T05:12:27;6.63;;;4.00;;
8317;SDS011;4196;48.926;8.964;2022-09-29T05:15:13;6.57;;;4.27;;
8317;SDS011;4196;48.926;8.964;2022-09-29T05:18:00;7.33;;;3.40;;
8317;SDS011;4196;48.926;8.964;2022-09-29T05:20:48;5.00;;;3.27;;
8317;SDS011;4196;48.926;8.964;2022-09-29T05:23:54;5.20;;;3.33;;
8317;SDS011;4196;48.926;8.964;2022-09-29T05:26:41;5.63;;;3.33;;
8317;SDS011;4196;48.926;8.964;2022-09-29T05:29:27;4.37;;;3.70;;
8317;SDS011;4196;48.926;8.964;2022-09-29T05:32:13;4.57;;;2.83;;
8317;SDS011;4196;48.926;8.964;2022-09-29T05:35:00;4.40;;;3.53;;
8317;SDS011;4196;48.926;8.964;2022-09-29T05:37:48;5.87;;;3.00;;
8317;SDS011;4196;48.926;8.964;2022-09-29T05:40:36;6.83;;;3.63;;
8317;SDS011;4196;48.926;8.964;2022-09-29T05:43:22;6.90;;;4.30;;
8317;SDS011;4196;48.926;8.964;2022-09-29T05:46:10;5.50;;;3.33;;
8317;SDS011;4196;48.926;8.964;2022-09-29T05:48:57;4.83;;;3.83;;
8317;SDS011;4196;48.926;8.964;2022-09-29T05:51:43;6.47;;;3.43;;
8317;SDS011;4196;48.926;8.964;2022-09-29T05:54:29;6.63;;;3.70;;
8317;SDS011;4196;48.926;8.964;2022-09-29T05:57:15;5.97;;;3.40;;
8317;SDS011;4196;48.926;8.964;2022-09-29T06:00:04;5.27;;;3.37;;
8317;SDS011;4196;48.926;8.964;2022-09-29T06:02:58;4.30;;;3.07;;
8317;SDS011;4196;48.926;8.964;2022-09-29T06:05:45;5.87;;;4.27;;
8317;SDS011;4196;48.926;8.964;2022-09-29T06:08:31;6.30;;;3.70;;
8317;SDS011;4196;48.926;8.964;2022-09-29T06:11:18;5.20;;;3.77;;
8317;SDS011;4196;48.926;8.964;2022-09-29T06:14:12;11.40;;;4.37;;
8317;SDS011;4196;48.926;8.964;2022-09-29T06:16:59;5.70;;;3.77;;
8317;SDS011;4196;48.926;8.964;2022-09-29T06:19:45;9.80;;;4.40;;
8317;SDS011;4196;48.926;8.964;2022-09-29T06:22:31;8.60;;;4.27;;
8317;SDS011;4196;48.926;8.964;2022-09-29T06:25:18;5.17;;;3.33;;
8317;SDS011;4196;48.926;8.964;2022-09-29T06:28:05;6.10;;;3.20;;
8317;SDS011;4196;48.926;8.964;2022-09-29T06:30:51;5.10;;;3.80;;
8317;SDS011;4196;48.926;8.964;2022-09-29T06:33:37;6.43;;;3.97;;
8317;SDS011;4196;48.926;8.964;2022-09-29T06:36:57;5.37;;;3.87;;
8317;SDS011;4196;48.926;8.964;2022-09-29T06:39:56;6.53;;;4.00;;
8317;SDS011;4196;48.926;8.964;2022-09-29T06:42:43;4.97;;;3.70;;
8317;SDS011;4196;48.926;8.964;2022-09-29T06:45:30;10.53;;;4.93;;
8317;SDS011;4196;48.926;8.964;2022-09-29T06:48:17;6.07;;;3.47;;
8317;SDS011;4196;48.926;8.964;2022-09-29T06:51:07;5.73;;;4.27;;
8317;SDS011;4196;48.926;8.964;2022-09-29T06:53:55;7.03;;;3.90;;
8317;SDS011;4196;48.926;8.964;2022-09-29T06:56:55;6.57;;;3.93;;
8317;SDS011;4196;48.926;8.964;2022-09-29T06:59:41;5.27;;;4.00;;
8317;SDS011;4196;48.926;8.964;2022-09-29T07:02:28;8.17;;;4.40;;
8317;SDS011;4196;48.926;8.964;2022-09-29T07:05:14;13.23;;;6.17;;
8317;SDS011;4196;48.926;8.964;2022-09-29T07:08:02;9.33;;;6.13;;
8317;SDS011;4196;48.926;8.964;2022-09-29T07:10:50;13.13;;;7.63;;
8317;SDS011;4196;48.926;8.964;2022-09-29T07:13:36;9.00;;;5.87;;
8317;SDS011;4196;48.926;8.964;2022-09-29T07:16:23;7.97;;;4.60;;
8317;SDS011;4196;48.926;8.964;2022-09-29T07:19:10;7.17;;;5.03;;
8317;SDS011;4196;48.926;8.964;2022-09-29T07:21:56;9.63;;;4.77;;
8317;SDS011;4196;48.926;8.964;2022-09-29T07:24:43;7.83;;;4.17;;
8317;SDS011;4196;48.926;8.964;2022-09-29T07:27:30;10.50;;;4.23;;
8317;SDS011;4196;48.926;8.964;2022-09-29T07:30:19;6.13;;;3.70;;
8317;SDS011;4196;48.926;8.964;2022-09-29T07:33:14;6.43;;;3.70;;
8317;SDS011;4196;48.926;8.964;2022-09-29T07:36:02;7.20;;;3.80;;
8317;SDS011;4196;48.926;8.964;2022-09-29T07:38:49;4.57;;;3.50;;
8317;SDS011;4196;48.926;8.964;2022-09-29T07:41:37;14.40;;;4.50;;
8317;SDS011;4196;48.926;8.964;2022-09-29T07:44:23;5.10;;;3.30;;
8317;SDS011;4196;48.926;8.964;2022-09-29T07:47:10;6.27;;;3.37;;
8317;SDS011;4196;48.926;8.964;2022-09-29T07:49:56;4.77;;;3.50;;
8317;SDS011;4196;48.926;8.964;2022-09-29T07:52:43;4.07;;;2.87;;
8317;SDS011;4196;48.926;8.964;2022-09-29T07:55:29;4.23;;;2.60;;
8317;SDS011;4196;48.926;8.964;2022-09-29T07:58:15;3.73;;;2.83;;
8317;SDS011;4196;48.926;8.964;2022-09-29T08:01:02;6.43;;;3.07;;
8317;SDS011;4196;48.926;8.964;2022-09-29T08:03:52;4.50;;;3.67;;
8317;SDS011;4196;48.926;8.964;2022-09-29T08:06:39;3.80;;;2.93;;
8317;SDS011;4196;48.926;8.964;2022-09-29T08:09:27;4.67;;;2.90;;
8317;SDS011;4196;48.926;8.964;2022-09-29T08:12:26;4.30;;;3.00;;
8317;SDS011;4196;48.926;8.964;2022-09-29T08:15:27;6.03;;;4.00;;
8317;SDS011;4196;48.926;8.964;2022-09-29T08:18:13;8.63;;;3.13;;
8317;SDS011;4196;48.926;8.964;2022-09-29T08:21:00;5.07;;;3.57;;
8317;SDS011;4196;48.926;8.964;2022-09-29T08:23:49;7.47;;;3.80;;
8317;SDS011;4196;48.926;8.964;2022-09-29T08:26:36;4.83;;;3.30;;
8317;SDS011;4196;48.926;8.964;2022-09-29T08:29:28;6.27;;;3.30;;
8317;SDS011;4196;48.926;8.964;2022-09-29T08:32:31;5.03;;;3.30;;
8317;SDS011;4196;48.926;8.964;2022-09-29T08:35:17;4.30;;;3.40;;
8317;SDS011;4196;48.926;8.964;2022-09-29T08:38:04;8.97;;;4.43;;
8317;SDS011;4196;48.926;8.964;2022-09-29T08:40:50;9.57;;;3.73;;
8317;SDS011;4196;48.926;8.964;2022-09-29T08:43:38;3.50;;;3.17;;
8317;SDS011;4196;48.926;8.964;2022-09-29T08:46:30;6.37;;;3.30;;
8317;SDS011;4196;48.926;8.964;2022-09-29T08:49:56;5.73;;;3.10;;
8317;SDS011;4196;48.926;8.964;2022-09-29T08:52:50;3.83;;;3.23;;
8317;SDS011;4196;48.926;8.964;2022-09-29T08:55:46;4.50;;;3.50;;
8317;SDS011;4196;48.926;8.964;2022-09-29T08:58:38;5.37;;;3.20;;
8317;SDS011;4196;48.926;8.964;2022-09-29T09:01:39;6.80;;;3.53;;
8317;SDS011;4196;48.926;8.964;2022-09-29T09:04:45;7.10;;;3.23;;
8317;SDS011;4196;48.926;8.964;2022-09-29T09:10:37;6.00;;;3.10;;
8317;SDS011;4196;48.926;8.964;2022-09-29T09:22:56;5.73;;;3.07;;
8317;SDS011;4196;48.926;8.964;2022-09-29T09:26:07;8.87;;;3.47;;
8317;SDS011;4196;48.926;8.964;2022-09-29T09:28:52;7.03;;;3.10;;
8317;SDS011;4196;48.926;8.964;2022-09-29T09:31:44;4.43;;;3.40;;
8317;SDS011;4196;48.926;8.964;2022-09-29T09:37:45;4.50;;;3.03;;
8317;SDS011;4196;48.926;8.964;2022-09-29T09:40:39;5.33;;;2.90;;
8317;SDS011;4196;48.926;8.964;2022-09-29T09:43:35;6.63;;;3.93;;
8317;SDS011;4196;48.926;8.964;2022-09-29T09:46:36;5.40;;;3.60;;
8317;SDS011;4196;48.926;8.964;2022-09-29T09:49:34;5.50;;;3.63;;
8317;SDS011;4196;48.926;8.964;2022-09-29T09:55:27;4.17;;;3.13;;
8317;SDS011;4196;48.926;8.964;2022-09-29T09:58:33;7.07;;;3.47;;
8317;SDS011;4196;48.926;8.964;2022-09-29T10:01:34;3.47;;;2.73;;
8317;SDS011;4196;48.926;8.964;2022-09-29T10:04:21;4.70;;;3.00;;
8317;SDS011;4196;48.926;8.964;2022-09-29T10:07:11;4.67;;;2.70;;
8317;SDS011;4196;48.926;8.964;2022-09-29T10:09:57;5.63;;;3.27;;
8317;SDS011;4196;48.926;8.964;2022-09-29T10:15:55;3.30;;;2.67;;
8317;SDS011;4196;48.926;8.964;2022-09-29T10:18:45;5.40;;;2.90;;
8317;SDS011;4196;48.926;8.964;2022-09-29T10:21:34;3.90;;;2.90;;
8317;SDS011;4196;48.926;8.964;2022-09-29T10:24:29;4.80;;;2.73;;
8317;SDS011;4196;48.926;8.964;2022-09-29T10:27:19;4.70;;;3.20;;
8317;SDS011;4196;48.926;8.964;2022-09-29T10:30:16;3.40;;;2.67;;
8317;SDS011;4196;48.926;8.964;2022-09-29T10:33:04;5.13;;;2.93;;
8317;SDS011;4196;48.926;8.964;2022-09-29T10:36:04;5.07;;;2.97;;
8317;SDS011;4196;48.926;8.964;2022-09-29T10:38:54;4.30;;;2.80;;
8317;SDS011;4196;48.926;8.964;2022-09-29T10:41:51;3.90;;;2.70;;
8317;SDS011;4196;48.926;8.964;2022-09-29T10:44:41;5.47;;;2.67;;
8317;SDS011;4196;48.926;8.964;2022-09-29T10:47:27;5.47;;;2.73;;
8317;SDS011;4196;48.926;8.964;2022-09-29T10:50:20;3.73;;;3.03;;
8317;SDS011;4196;48.926;8.964;2022-09-29T10:53:42;4.07;;;2.93;;
8317;SDS011;4196;48.926;8.964;2022-09-29T10:56:27;5.40;;;2.90;;
8317;SDS011;4196;48.926;8.964;2022-09-29T10:59:15;7.07;;;3.00;;
8317;SDS011;4196;48.926;8.964;2022-09-29T11:02:02;4.10;;;3.10;;
8317;SDS011;4196;48.926;8.964;2022-09-29T11:04:50;5.87;;;2.83;;
8317;SDS011;4196;48.926;8.964;2022-09-29T11:07:42;4.63;;;2.83;;
8317;SDS011;4196;48.926;8.964;2022-09-29T11:10:31;4.43;;;2.97;;
8317;SDS011;4196;48.926;8.964;2022-09-29T11:19:08;3.97;;;2.70;;
8317;SDS011;4196;48.926;8.964;2022-09-29T11:22:04;4.57;;;3.27;;
8317;SDS011;4196;48.926;8.964;2022-09-29T11:25:00;4.67;;;2.30;;
8317;SDS011;4196;48.926;8.964;2022-09-29T11:31:57;5.77;;;2.87;;
8317;SDS011;4196;48.926;8.964;2022-09-29T11:44:58;3.50;;;2.63;;
8317;SDS011;4196;48.926;8.964;2022-09-29T11:50:57;3.30;;;2.60;;
8317;SDS011;4196;48.926;8.964;2022-09-29T12:03:38;2.87;;;2.43;;
8317;SDS011;4196;48.926;8.964;2022-09-29T12:12:44;5.37;;;2.60;;
8317;SDS011;4196;48.926;8.964;2022-09-29T12:19:13;4.23;;;2.47;;
8317;SDS011;4196;48.926;8.964;2022-09-29T12:22:02;3.73;;;2.60;;
8317;SDS011;4196;48.926;8.964;2022-09-29T12:24:53;4.20;;;2.50;;
8317;SDS011;4196;48.926;8.964;2022-09-29T12:27:42;3.73;;;2.40;;
8317;SDS011;4196;48.926;8.964;2022-09-29T12:30:34;4.17;;;2.30;;
8317;SDS011;4196;48.926;8.964;2022-09-29T12:33:31;4.77;;;2.27;;
8317;SDS011;4196;48.926;8.964;2022-09-29T12:36:41;4.80;;;2.10;;
8317;SDS011;4196;48.926;8.964;2022-09-29T12:42:49;2.97;;;2.10;;
8317;SDS011;4196;48.926;8.964;2022-09-29T12:48:51;2.87;;;2.27;;
8317;SDS011;4196;48.926;8.964;2022-09-29T12:51:46;3.23;;;2.30;;
8317;SDS011;4196;48.926;8.964;2022-09-29T12:54:46;4.80;;;2.90;;
8317;SDS011;4196;48.926;8.964;2022-09-29T12:57:38;3.93;;;2.03;;
8317;SDS011;4196;48.926;8.964;2022-09-29T13:00:31;2.87;;;2.00;;
8317;SDS011;4196;48.926;8.964;2022-09-29T13:18:31;2.33;;;1.90;;
8317;SDS011;4196;48.926;8.964;2022-09-29T13:27:45;1.60;;;1.50;;
8317;SDS011;4196;48.926;8.964;2022-09-29T13:30:33;2.13;;;1.50;;
8317;SDS011;4196;48.926;8.964;2022-09-29T13:33:23;3.03;;;1.60;;
8317;SDS011;4196;48.926;8.964;2022-09-29T13:36:19;2.47;;;1.80;;
8317;SDS011;4196;48.926;8.964;2022-09-29T13:39:19;1.80;;;1.70;;
8317;SDS011;4196;48.926;8.964;2022-09-29T13:51:23;2.70;;;1.90;;
8317;SDS011;4196;48.926;8.964;2022-09-29T14:00:16;2.10;;;1.50;;
8317;SDS011;4196;48.926;8.964;2022-09-29T14:03:04;2.97;;;1.50;;
8317;SDS011;4196;48.926;8.964;2022-09-29T14:09:27;2.90;;;1.70;;
8317;SDS011;4196;48.926;8.964;2022-09-29T14:12:19;3.60;;;1.70;;
8317;SDS011;4196;48.926;8.964;2022-09-29T14:15:12;3.67;;;1.53;;
8317;SDS011;4196;48.926;8.964;2022-09-29T14:18:04;3.90;;;2.23;;
8317;SDS011;4196;48.926;8.964;2022-09-29T14:21:00;7.67;;;1.73;;
8317;SDS011;4196;48.926;8.964;2022-09-29T14:23:50;5.37;;;1.57;;
8317;SDS011;4196;48.926;8.964;2022-09-29T14:26:47;1.20;;;1.10;;
8317;SDS011;4196;48.926;8.964;2022-09-29T14:29:43;2.00;;;1.73;;
8317;SDS011;4196;48.926;8.964;2022-09-29T14:36:03;2.23;;;1.63;;
8317;SDS011;4196;48.926;8.964;2022-09-29T14:38:56;5.67;;;2.23;;
8317;SDS011;4196;48.926;8.964;2022-09-29T14:42:03;2.17;;;1.53;;
8317;SDS011;4196;48.926;8.964;2022-09-29T14:44:50;2.80;;;1.43;;
8317;SDS011;4196;48.926;8.964;2022-09-29T14:47:58;3.17;;;1.43;;
8317;SDS011;4196;48.926;8.964;2022-09-29T14:51:33;2.43;;;1.60;;
8317;SDS011;4196;48.926;8.964;2022-09-29T14:54:45;1.60;;;1.50;;
8317;SDS011;4196;48.926;8.964;2022-09-29T15:01:29;3.60;;;1.50;;
8317;SDS011;4196;48.926;8.964;2022-09-29T15:04:17;2.67;;;1.70;;
8317;SDS011;4196;48.926;8.964;2022-09-29T15:07:04;1.87;;;1.70;;
8317;SDS011;4196;48.926;8.964;2022-09-29T15:09:56;1.87;;;1.50;;
8317;SDS011;4196;48.926;8.964;2022-09-29T15:12:44;1.53;;;1.43;;
8317;SDS011;4196;48.926;8.964;2022-09-29T15:15:33;2.47;;;1.90;;
8317;SDS011;4196;48.926;8.964;2022-09-29T15:18:37;2.20;;;1.60;;
8317;SDS011;4196;48.926;8.964;2022-09-29T15:31:15;3.33;;;1.77;;
8317;SDS011;4196;48.926;8.964;2022-09-29T15:34:08;1.60;;;1.50;;
8317;SDS011;4196;48.926;8.964;2022-09-29T15:37:03;1.60;;;1.50;;
8317;SDS011;4196;48.926;8.964;2022-09-29T15:39:50;1.87;;;1.47;;
8317;SDS011;4196;48.926;8.964;2022-09-29T15:42:38;1.13;;;1.03;;
8317;SDS011;4196;48.926;8.964;2022-09-29T15:45:26;1.50;;;1.17;;
8317;SDS011;4196;48.926;8.964;2022-09-29T15:48:14;4.60;;;1.50;;
8317;SDS011;4196;48.926;8.964;2022-09-29T15:51:01;1.20;;;1.10;;
8317;SDS011;4196;48.926;8.964;2022-09-29T15:53:49;2.73;;;1.73;;
8317;SDS011;4196;48.926;8.964;2022-09-29T15:56:36;2.50;;;1.60;;
8317;SDS011;4196;48.926;8.964;2022-09-29T16:02:39;1.50;;;1.40;;
8317;SDS011;4196;48.926;8.964;2022-09-29T16:05:28;1.40;;;1.30;;
8317;SDS011;4196;48.926;8.964;2022-09-29T16:08:18;2.10;;;1.57;;
8317;SDS011;4196;48.926;8.964;2022-09-29T16:11:14;1.40;;;1.30;;
8317;SDS011;4196;48.926;8.964;2022-09-29T16:14:09;2.07;;;1.27;;
8317;SDS011;4196;48.926;8.964;2022-09-29T16:17:04;2.07;;;1.70;;
8317;SDS011;4196;48.926;8.964;2022-09-29T16:19:53;3.33;;;2.43;;
8317;SDS011;4196;48.926;8.964;2022-09-29T16:22:40;3.93;;;1.30;;
8317;SDS011;4196;48.926;8.964;2022-09-29T16:25:31;3.17;;;2.00;;
8317;SDS011;4196;48.926;8.964;2022-09-29T16:28:25;2.90;;;2.43;;
8317;SDS011;4196;48.926;8.964;2022-09-29T16:31:16;5.30;;;2.67;;
8317;SDS011;4196;48.926;8.964;2022-09-29T16:34:07;3.87;;;2.27;;
8317;SDS011;4196;48.926;8.964;2022-09-29T16:37:05;2.40;;;2.20;;
8317;SDS011;4196;48.926;8.964;2022-09-29T16:40:16;5.87;;;4.07;;
8317;SDS011;4196;48.926;8.964;2022-09-29T16:43:16;4.10;;;2.70;;
8317;SDS011;4196;48.926;8.964;2022-09-29T16:46:08;5.23;;;3.20;;
8317;SDS011;4196;48.926;8.964;2022-09-29T16:49:01;4.47;;;2.77;;
8317;SDS011;4196;48.926;8.964;2022-09-29T16:51:48;3.63;;;2.70;;
8317;SDS011;4196;48.926;8.964;2022-09-29T16:54:38;3.93;;;2.90;;
8317;SDS011;4196;48.926;8.964;2022-09-29T16:57:29;2.70;;;2.30;;
8317;SDS011;4196;48.926;8.964;2022-09-29T17:00:16;6.43;;;2.27;;
8317;SDS011;4196;48.926;8.964;2022-09-29T17:03:03;3.13;;;2.33;;
8317;SDS011;4196;48.926;8.964;2022-09-29T17:05:50;3.17;;;2.17;;
8317;SDS011;4196;48.926;8.964;2022-09-29T17:08:37;3.90;;;2.20;;
8317;SDS011;4196;48.926;8.964;2022-09-29T17:11:23;3.43;;;2.10;;
8317;SDS011;4196;48.926;8.964;2022-09-29T17:14:10;2.97;;;2.00;;
8317;SDS011;4196;48.926;8.964;2022-09-29T17:16:58;3.17;;;1.93;;
8317;SDS011;4196;48.926;8.964;2022-09-29T17:19:45;3.90;;;2.27;;
8317;SDS011;4196;48.926;8.964;2022-09-29T17:22:33;2.37;;;1.70;;
8317;SDS011;4196;48.926;8.964;2022-09-29T17:25:21;2.90;;;2.20;;
8317;SDS011;4196;48.926;8.964;2022-09-29T17:28:10;5.83;;;3.20;;
8317;SDS011;4196;48.926;8.964;2022-09-29T17:31:02;4.50;;;3.07;;
8317;SDS011;4196;48.926;8.964;2022-09-29T17:33:50;5.03;;;3.10;;
8317;SDS011;4196;48.926;8.964;2022-09-29T17:36:36;6.03;;;2.87;;
8317;SDS011;4196;48.926;8.964;2022-09-29T17:39:25;6.00;;;3.20;;
8317;SDS011;4196;48.926;8.964;2022-09-29T17:42:11;5.87;;;3.33;;
8317;SDS011;4196;48.926;8.964;2022-09-29T17:44:58;7.37;;;3.60;;
8317;SDS011;4196;48.926;8.964;2022-09-29T17:47:45;4.40;;;2.83;;
8317;SDS011;4196;48.926;8.964;2022-09-29T17:50:52;5.27;;;3.07;;
8317;SDS011;4196;48.926;8.964;2022-09-29T17:53:41;4.00;;;2.80;;
8317;SDS011;4196;48.926;8.964;2022-09-29T17:56:27;4.50;;;2.80;;
8317;SDS011;4196;48.926;8.964;2022-09-29T17:59:19;5.57;;;3.30;;
8317;SDS011;4196;48.926;8.964;2022-09-29T18:02:10;6.73;;;3.43;;
8317;SDS011;4196;48.926;8.964;2022-09-29T18:04:58;5.30;;;3.00;;
8317;SDS011;4196;48.926;8.964;2022-09-29T18:07:44;10.77;;;5.90;;
8317;SDS011;4196;48.926;8.964;2022-09-29T18:13:40;5.33;;;2.50;;
8317;SDS011;4196;48.926;8.964;2022-09-29T18:16:26;19.47;;;9.53;;
8317;SDS011;4196;48.926;8.964;2022-09-29T18:19:14;47.23;;;22.30;;
8317;SDS011;4196;48.926;8.964;2022-09-29T18:22:02;17.67;;;7.70;;
8317;SDS011;4196;48.926;8.964;2022-09-29T18:24:51;11.20;;;5.57;;
8317;SDS011;4196;48.926;8.964;2022-09-29T18:27:37;10.27;;;5.13;;
8317;SDS011;4196;48.926;8.964;2022-09-29T18:30:25;9.17;;;5.73;;
8317;SDS011;4196;48.926;8.964;2022-09-29T18:33:15;8.10;;;5.97;;
8317;SDS011;4196;48.926;8.964;2022-09-29T18:36:03;7.83;;;5.03;;
8317;SDS011;4196;48.926;8.964;2022-09-29T18:38:50;7.80;;;5.43;;
8317;SDS011;4196;48.926;8.964;2022-09-29T18:41:36;8.90;;;5.30;;
8317;SDS011;4196;48.926;8.964;2022-09-29T18:44:23;6.37;;;4.40;;
8317;SDS011;4196;48.926;8.964;2022-09-29T18:47:14;5.97;;;4.07;;
8317;SDS011;4196;48.926;8.964;2022-09-29T18:50:00;5.97;;;4.30;;
8317;SDS011;4196;48.926;8.964;2022-09-29T18:52:47;4.77;;;3.33;;
8317;SDS011;4196;48.926;8.964;2022-09-29T18:55:34;9.70;;;3.93;;
8317;SDS011;4196;48.926;8.964;2022-09-29T18:58:21;7.23;;;4.30;;
8317;SDS011;4196;48.926;8.964;2022-09-29T19:01:08;6.43;;;4.93;;
8317;SDS011;4196;48.926;8.964;2022-09-29T19:03:59;7.10;;;4.97;;
8317;SDS011;4196;48.926;8.964;2022-09-29T19:06:45;8.17;;;4.93;;
8317;SDS011;4196;48.926;8.964;2022-09-29T19:09:31;11.67;;;5.77;;
8317;SDS011;4196;48.926;8.964;2022-09-29T19:12:18;8.27;;;5.13;;
8317;SDS011;4196;48.926;8.964;2022-09-29T19:15:11;8.13;;;4.23;;
8317;SDS011;4196;48.926;8.964;2022-09-29T19:17:58;5.17;;;4.00;;
8317;SDS011;4196;48.926;8.964;2022-09-29T19:20:44;8.40;;;4.77;;
8317;SDS011;4196;48.926;8.964;2022-09-29T19:23:31;6.27;;;4.00;;
8317;SDS011;4196;48.926;8.964;2022-09-29T19:26:18;6.80;;;3.70;;
8317;SDS011;4196;48.926;8.964;2022-09-29T19:29:07;6.33;;;3.93;;
8317;SDS011;4196;48.926;8.964;2022-09-29T19:31:53;6.17;;;3.40;;
8317;SDS011;4196;48.926;8.964;2022-09-29T19:34:40;7.07;;;3.60;;
8317;SDS011;4196;48.926;8.964;2022-09-29T19:37:26;6.43;;;4.30;;
8317;SDS011;4196;48.926;8.964;2022-09-29T19:40:16;9.90;;;5.13;;
8317;SDS011;4196;48.926;8.964;2022-09-29T19:43:05;35.43;;;15.37;;
8317;SDS011;4196;48.926;8.964;2022-09-29T19:45:53;12.17;;;7.40;;
8317;SDS011;4196;48.926;8.964;2022-09-29T19:48:39;9.60;;;6.20;;
8317;SDS011;4196;48.926;8.964;2022-09-29T19:51:28;12.93;;;7.90;;
8317;SDS011;4196;48.926;8.964;2022-09-29T19:54:34;8.60;;;5.73;;
8317;SDS011;4196;48.926;8.964;2022-09-29T19:57:22;8.80;;;5.33;;
8317;SDS011;4196;48.926;8.964;2022-09-29T20:00:09;7.67;;;5.40;;
8317;SDS011;4196;48.926;8.964;2022-09-29T20:02:58;9.17;;;5.83;;
8317;SDS011;4196;48.926;8.964;2022-09-29T20:05:45;14.00;;;6.23;;
8317;SDS011;4196;48.926;8.964;2022-09-29T20:08:32;7.77;;;5.33;;
8317;SDS011;4196;48.926;8.964;2022-09-29T20:11:19;8.87;;;5.37;;
8317;SDS011;4196;48.926;8.964;2022-09-29T20:14:07;8.40;;;4.80;;
8317;SDS011;4196;48.926;8.964;2022-09-29T20:16:56;7.20;;;4.47;;
8317;SDS011;4196;48.926;8.964;2022-09-29T20:19:43;9.17;;;5.17;;
8317;SDS011;4196;48.926;8.964;2022-09-29T20:22:35;7.53;;;5.30;;